Time;durP1;ratioP1;P1;durP2;ratioP2;P2;SDS_P1;SDS_P2;PMS_P1;PMS_P2;Temp;Humidity;BMP_temperature;BMP_pressure;BME280_temperature;BME280_humidity;BME280_pressure;Samples;Min_cycle;Max_cycle;Signal;HPM_P1;HPM_P2
2020/12/02 00:01:25;;;;;;;31.00;19.58;;;1.30;99.90;;;;;;5105232;28;20702;-88
2020/12/02 00:03:58;;;;;;;32.80;21.05;;;1.30;99.90;;;;;;5095987;28;20276;-87
2020/12/02 00:06:26;;;;;;;33.13;20.58;;;1.30;99.90;;;;;;5107439;28;20276;-88
2020/12/02 00:08:57;;;;;;;32.53;21.73;;;1.30;99.90;;;;;;5101408;28;20275;-86
2020/12/02 00:11:24;;;;;;;31.70;21.27;;;1.30;99.90;;;;;;5098772;28;20192;-86
2020/12/02 00:13:52;;;;;;;31.77;21.73;;;1.30;99.90;;;;;;5094652;28;20287;-86
2020/12/02 00:16:21;;;;;;;30.27;18.92;;;1.30;99.90;;;;;;5108437;28;20271;-87
2020/12/02 00:18:50;;;;;;;32.25;21.08;;;1.30;99.90;;;;;;5100449;28;20303;-88
2020/12/02 00:21:16;;;;;;;34.28;21.25;;;1.30;99.90;;;;;;5099980;28;20275;-87
2020/12/02 00:23:42;;;;;;;28.98;19.38;;;1.30;99.90;;;;;;5092254;28;20279;-88
2020/12/02 00:26:09;;;;;;;34.65;20.10;;;1.40;99.90;;;;;;5108983;28;20268;-88
2020/12/02 00:28:35;;;;;;;30.27;20.25;;;1.40;99.90;;;;;;5098630;28;20267;-89
2020/12/02 00:31:02;;;;;;;30.10;20.98;;;1.30;99.90;;;;;;5102114;28;20252;-89
2020/12/02 00:33:28;;;;;;;35.35;21.73;;;1.30;99.90;;;;;;5106010;28;20737;-89
2020/12/02 00:35:55;;;;;;;35.30;23.35;;;1.30;99.90;;;;;;5095496;28;20279;-90
2020/12/02 00:38:22;;;;;;;28.83;19.88;;;1.30;99.90;;;;;;5107375;28;20649;-88
2020/12/02 00:40:48;;;;;;;32.25;21.15;;;1.30;99.90;;;;;;5104289;28;20211;-88
2020/12/02 00:43:17;;;;;;;33.45;21.35;;;1.20;99.90;;;;;;5103670;28;20620;-87
2020/12/02 00:45:44;;;;;;;31.02;20.60;;;1.20;99.90;;;;;;5111880;28;20276;-89
2020/12/02 00:48:13;;;;;;;27.23;19.42;;;1.20;99.90;;;;;;5098933;28;20275;-89
2020/12/02 00:50:40;;;;;;;32.90;21.40;;;1.20;99.90;;;;;;5108666;28;20226;-89
2020/12/02 00:53:08;;;;;;;30.42;19.77;;;1.10;99.90;;;;;;5106546;28;20278;-89
2020/12/02 00:55:34;;;;;;;28.98;18.98;;;1.10;99.90;;;;;;5100185;28;20284;-89
2020/12/02 00:58:02;;;;;;;31.65;19.80;;;1.10;99.90;;;;;;5112187;28;20664;-89
2020/12/02 01:00:35;;;;;;;31.83;20.95;;;1.10;99.90;;;;;;5101123;28;20276;-89
2020/12/02 01:03:06;;;;;;;33.05;20.13;;;1.00;99.90;;;;;;5105046;28;20271;-89
2020/12/02 01:05:34;;;;;;;31.88;20.13;;;1.00;99.90;;;;;;5109804;28;20271;-88
2020/12/02 01:08:18;;;;;;;33.13;19.67;;;1.00;99.90;;;;;;5113223;28;20282;-88
2020/12/02 01:10:46;;;;;;;31.42;20.58;;;1.00;99.90;;;;;;5103145;28;20186;-88
2020/12/02 01:13:12;;;;;;;34.38;21.05;;;1.00;99.90;;;;;;5112656;28;20702;-89
2020/12/02 01:15:39;;;;;;;29.60;20.63;;;0.90;99.90;;;;;;5115299;28;20309;-88
2020/12/02 01:18:14;;;;;;;39.17;23.23;;;0.90;99.90;;;;;;5108731;28;20275;-87
2020/12/02 01:20:41;;;;;;;31.50;21.30;;;0.90;99.90;;;;;;5102153;28;20176;-88
2020/12/02 01:23:17;;;;;;;39.15;22.80;;;0.80;99.90;;;;;;5109562;28;20233;-88
2020/12/02 01:25:45;;;;;;;30.85;20.60;;;0.80;99.90;;;;;;5098902;28;20185;-88
2020/12/02 01:28:18;;;;;;;38.15;22.42;;;0.80;99.90;;;;;;5115089;28;20271;-89
2020/12/02 01:30:45;;;;;;;32.78;21.70;;;0.80;99.90;;;;;;5108838;28;20714;-88
2020/12/02 01:33:15;;;;;;;35.08;21.90;;;0.80;99.90;;;;;;5103426;28;20275;-88
2020/12/02 01:35:45;;;;;;;34.88;23.10;;;0.70;99.90;;;;;;5112988;28;20223;-89
2020/12/02 01:38:12;;;;;;;32.95;20.92;;;0.70;99.90;;;;;;5099914;28;20211;-90
2020/12/02 01:40:40;;;;;;;34.72;22.73;;;0.70;99.90;;;;;;5108794;28;20692;-90
2020/12/02 01:43:08;;;;;;;40.83;25.00;;;0.70;99.90;;;;;;5105683;28;20266;-91
2020/12/02 01:45:36;;;;;;;34.15;22.50;;;0.70;99.90;;;;;;5099629;28;20346;-90
2020/12/02 01:48:31;;;;;;;37.35;24.13;;;0.70;99.90;;;;;;5110950;28;20184;-90
2020/12/02 01:51:02;;;;;;;43.05;24.73;;;0.70;99.90;;;;;;5103717;28;20271;-90
2020/12/02 01:53:39;;;;;;;41.42;25.60;;;0.60;99.90;;;;;;5099862;28;20634;-91
2020/12/02 01:56:11;;;;;;;35.72;23.48;;;0.60;99.90;;;;;;5110832;28;20274;-89
2020/12/02 01:58:45;;;;;;;33.25;21.75;;;0.60;99.90;;;;;;5100867;28;20302;-89
2020/12/02 02:01:19;;;;;;;31.55;21.60;;;0.60;99.90;;;;;;5102210;28;20275;-89
2020/12/02 02:03:46;;;;;;;39.47;23.10;;;0.60;99.90;;;;;;5110257;28;20279;-89
2020/12/02 02:06:16;;;;;;;34.38;21.23;;;0.60;99.90;;;;;;5097265;28;20706;-90
2020/12/02 02:08:42;;;;;;;44.35;24.42;;;0.60;99.90;;;;;;5106109;28;20347;-90
2020/12/02 02:11:12;;;;;;;37.55;23.35;;;0.70;99.90;;;;;;5105305;28;20279;-89
2020/12/02 02:14:02;;;;;;;32.53;20.85;;;0.60;99.90;;;;;;5111436;28;20607;-89
2020/12/02 02:16:30;;;;;;;34.45;22.42;;;0.60;99.90;;;;;;5094055;28;20224;-90
2020/12/02 02:18:56;;;;;;;39.25;23.05;;;0.70;99.90;;;;;;5094203;28;20315;-89
2020/12/02 02:21:27;;;;;;;34.35;22.00;;;0.70;99.90;;;;;;5101996;28;20704;-90
2020/12/02 02:23:53;;;;;;;36.08;20.20;;;0.60;99.90;;;;;;5114307;28;20282;-91
2020/12/02 02:26:30;;;;;;;34.40;21.25;;;0.60;99.90;;;;;;5114341;28;20584;-92
2020/12/02 02:29:02;;;;;;;36.05;21.73;;;0.60;99.90;;;;;;5113648;28;20283;-88
2020/12/02 02:31:33;;;;;;;36.70;21.50;;;0.60;99.90;;;;;;5114291;28;20279;-89
2020/12/02 02:34:01;;;;;;;40.42;20.63;;;0.60;99.90;;;;;;5114064;28;20227;-86
2020/12/02 02:36:29;;;;;;;34.97;21.13;;;0.60;99.90;;;;;;5114221;28;20283;-92
2020/12/02 02:38:57;;;;;;;32.33;21.45;;;0.60;99.90;;;;;;5114036;28;20218;-92
2020/12/02 02:41:26;;;;;;;33.90;21.92;;;0.60;99.90;;;;;;5113932;28;20192;-91
2020/12/02 02:43:53;;;;;;;38.58;22.75;;;0.60;99.90;;;;;;5114145;28;20187;-92
2020/12/02 02:46:19;;;;;;;31.25;21.00;;;0.60;99.90;;;;;;5114123;28;20271;-93
2020/12/02 02:48:45;;;;;;;34.72;20.45;;;0.60;99.90;;;;;;5114082;28;20657;-92
2020/12/02 02:51:11;;;;;;;35.97;22.58;;;0.60;99.90;;;;;;5114679;28;20354;-91
2020/12/02 02:53:37;;;;;;;40.97;21.27;;;0.60;99.90;;;;;;5114253;28;20283;-92
2020/12/02 02:56:03;;;;;;;35.10;23.20;;;0.60;99.90;;;;;;5113944;28;20188;-90
2020/12/02 02:58:30;;;;;;;35.53;22.30;;;0.60;99.90;;;;;;5114006;28;20303;-93
2020/12/02 03:01:00;;;;;;;32.30;20.90;;;0.60;99.90;;;;;;5113580;28;20282;-91
2020/12/02 03:03:28;;;;;;;36.58;21.75;;;0.50;99.90;;;;;;5113512;28;20283;-91
2020/12/02 03:05:55;;;;;;;32.53;21.08;;;0.50;99.90;;;;;;5113576;28;20195;-92
2020/12/02 03:08:21;;;;;;;37.72;23.30;;;0.60;99.90;;;;;;5113557;28;20279;-90
2020/12/02 03:10:47;;;;;;;30.77;19.73;;;0.50;99.90;;;;;;5113497;28;20283;-92
2020/12/02 03:13:27;;;;;;;31.50;19.43;;;0.50;99.90;;;;;;5103984;28;20193;-92
2020/12/02 03:15:55;;;;;;;32.00;19.40;;;0.50;99.90;;;;;;5092922;28;21023;-93
2020/12/02 03:18:23;;;;;;;29.08;18.85;;;0.40;99.90;;;;;;5093218;28;20283;-93
2020/12/02 03:20:53;;;;;;;33.28;20.95;;;0.40;99.90;;;;;;5092999;28;20612;-92
2020/12/02 03:23:20;;;;;;;33.25;19.65;;;0.40;99.90;;;;;;5093450;28;20618;-94
2020/12/02 03:25:48;;;;;;;32.20;20.27;;;0.40;99.90;;;;;;5093907;28;20279;-93
2020/12/02 03:28:14;;;;;;;31.67;21.10;;;0.40;99.90;;;;;;5093835;28;20643;-93
2020/12/02 03:30:41;;;;;;;30.80;20.08;;;0.40;99.90;;;;;;5093152;28;20279;-93
2020/12/02 03:33:12;;;;;;;34.00;20.50;;;0.40;99.90;;;;;;5094011;28;20267;-94
2020/12/02 03:35:39;;;;;;;33.50;21.42;;;0.40;99.90;;;;;;5093278;28;20284;-94
2020/12/02 03:38:05;;;;;;;30.25;20.30;;;0.40;99.90;;;;;;5093461;28;20279;-93
2020/12/02 03:40:31;;;;;;;35.45;21.00;;;0.40;99.90;;;;;;5093061;28;20315;-93
2020/12/02 03:42:57;;;;;;;37.80;21.10;;;0.40;99.90;;;;;;5093213;28;20788;-90
2020/12/02 03:45:23;;;;;;;33.10;21.33;;;0.40;99.90;;;;;;5092779;28;20227;-91
2020/12/02 03:47:49;;;;;;;36.67;22.52;;;0.40;99.90;;;;;;5092849;28;20839;-90
2020/12/02 03:50:16;;;;;;;30.83;20.33;;;0.40;99.90;;;;;;5092689;28;20283;-91
2020/12/02 03:52:43;;;;;;;27.63;17.90;;;0.40;99.90;;;;;;5092767;28;20220;-90
2020/12/02 03:55:11;;;;;;;35.40;21.02;;;0.40;99.90;;;;;;5092804;28;20533;-90
2020/12/02 03:57:37;;;;;;;34.28;21.30;;;0.40;99.90;;;;;;5092892;28;20184;-89
2020/12/02 04:00:07;;;;;;;28.13;19.17;;;0.40;99.90;;;;;;5092508;28;20220;-88
2020/12/02 04:02:33;;;;;;;37.15;20.13;;;0.40;99.90;;;;;;5092727;28;20279;-88
2020/12/02 04:04:59;;;;;;;37.87;20.97;;;0.30;99.90;;;;;;5092467;28;20230;-90
2020/12/02 04:07:26;;;;;;;38.20;21.02;;;0.30;99.90;;;;;;5092876;28;20474;-90
2020/12/02 04:09:52;;;;;;;38.03;22.30;;;0.30;99.90;;;;;;5092658;28;20287;-87
2020/12/02 04:12:18;;;;;;;36.97;21.00;;;0.30;99.90;;;;;;5094388;28;20185;-88
2020/12/02 04:14:44;;;;;;;33.57;20.93;;;0.30;99.90;;;;;;5116666;28;20461;-89
2020/12/02 04:17:09;;;;;;;32.72;20.65;;;0.30;99.90;;;;;;5116814;28;20533;-88
2020/12/02 04:19:35;;;;;;;31.10;20.37;;;0.30;99.90;;;;;;5116686;28;20223;-90
2020/12/02 04:22:01;;;;;;;36.90;21.50;;;0.30;99.90;;;;;;5116758;28;20502;-89
2020/12/02 04:24:28;;;;;;;33.27;20.90;;;0.40;99.90;;;;;;5116866;28;20846;-90
2020/12/02 04:26:54;;;;;;;36.40;21.60;;;0.30;99.90;;;;;;5116669;28;20541;-89
2020/12/02 04:29:20;;;;;;;36.63;22.02;;;0.40;99.90;;;;;;5116657;28;20235;-89
2020/12/02 04:31:46;;;;;;;32.75;20.88;;;0.40;99.90;;;;;;5116428;28;20283;-90
2020/12/02 04:34:12;;;;;;;48.03;22.25;;;0.50;99.90;;;;;;5116801;28;20276;-88
2020/12/02 04:36:38;;;;;;;34.45;21.75;;;0.50;99.90;;;;;;5116469;28;20295;-88
2020/12/02 04:39:05;;;;;;;36.42;21.77;;;0.50;99.90;;;;;;5116488;28;20247;-88
2020/12/02 04:41:33;;;;;;;31.92;21.08;;;0.50;99.90;;;;;;5116358;28;20619;-88
2020/12/02 04:44:00;;;;;;;32.65;21.33;;;0.50;99.90;;;;;;5116402;28;20616;-87
2020/12/02 04:46:31;;;;;;;32.15;20.38;;;0.40;99.90;;;;;;5116200;28;20223;-88
2020/12/02 04:49:03;;;;;;;34.85;21.52;;;0.50;99.90;;;;;;5116212;28;20669;-88
2020/12/02 04:51:29;;;;;;;38.22;21.88;;;0.40;99.90;;;;;;5116216;28;20554;-88
2020/12/02 04:53:58;;;;;;;38.72;22.15;;;0.40;99.90;;;;;;5116317;28;20712;-88
2020/12/02 04:56:25;;;;;;;34.83;22.67;;;0.40;99.90;;;;;;5115924;28;20739;-89
2020/12/02 04:58:54;;;;;;;39.05;22.10;;;0.30;99.90;;;;;;5115951;27;20211;-88
2020/12/02 05:01:23;;;;;;;35.05;20.63;;;0.30;99.90;;;;;;5115923;28;20694;-91
2020/12/02 05:03:54;;;;;;;39.40;23.40;;;0.30;99.90;;;;;;5116024;28;20199;-90
2020/12/02 05:06:25;;;;;;;33.90;20.10;;;0.30;99.90;;;;;;5115865;28;20278;-90
2020/12/02 05:08:51;;;;;;;32.50;20.13;;;0.30;99.90;;;;;;5115879;28;20275;-93
2020/12/02 05:11:17;;;;;;;33.47;20.55;;;0.20;99.90;;;;;;5115736;28;20706;-90
2020/12/02 05:13:58;;;;;;;32.97;21.13;;;0.20;99.90;;;;;;5115347;28;20215;-90
2020/12/02 05:16:24;;;;;;;37.53;21.70;;;0.20;99.90;;;;;;5115610;28;20278;-94
2020/12/02 05:18:57;;;;;;;33.45;21.00;;;0.20;99.90;;;;;;5115661;28;20266;-89
2020/12/02 05:21:23;;;;;;;40.70;21.80;;;0.20;99.90;;;;;;5115646;27;20241;-89
2020/12/02 05:24:05;;;;;;;32.47;21.63;;;0.20;99.90;;;;;;5115476;28;20646;-90
2020/12/02 05:26:33;;;;;;;36.53;20.65;;;0.20;99.90;;;;;;5115161;28;20476;-88
2020/12/02 05:29:04;;;;;;;35.60;20.95;;;0.30;99.90;;;;;;5115622;28;20283;-88
2020/12/02 05:31:33;;;;;;;33.35;20.83;;;0.20;99.90;;;;;;5111644;28;20739;-82
2020/12/02 05:34:06;;;;;;;31.67;20.83;;;0.30;99.90;;;;;;5095024;28;20272;-83
2020/12/02 05:36:35;;;;;;;36.40;21.15;;;0.30;99.90;;;;;;5094774;28;20624;-83
2020/12/02 05:39:05;;;;;;;28.20;19.50;;;0.20;99.90;;;;;;5094997;28;20303;-82
2020/12/02 05:41:32;;;;;;;56.13;30.50;;;0.30;99.90;;;;;;5094733;28;20199;-82
2020/12/02 05:44:03;;;;;;;36.95;24.23;;;0.30;99.90;;;;;;5094882;28;20275;-82
2020/12/02 05:46:36;;;;;;;35.80;22.38;;;0.20;99.90;;;;;;5094623;28;20661;-82
2020/12/02 05:49:05;;;;;;;38.90;23.48;;;0.30;99.90;;;;;;5094575;28;20272;-81
2020/12/02 05:51:32;;;;;;;32.35;21.70;;;0.30;99.90;;;;;;5094633;28;20288;-83
2020/12/02 05:54:04;;;;;;;33.42;20.00;;;0.30;99.90;;;;;;5094592;28;20271;-82
2020/12/02 05:56:30;;;;;;;35.50;21.15;;;0.30;99.90;;;;;;5094500;28;20193;-83
2020/12/02 05:58:56;;;;;;;31.25;20.58;;;0.30;99.90;;;;;;5094466;28;20295;-82
2020/12/02 06:01:23;;;;;;;36.85;21.38;;;0.30;99.90;;;;;;5094242;28;20192;-86
2020/12/02 06:03:54;;;;;;;37.28;22.52;;;0.30;99.90;;;;;;5094394;28;20280;-81
2020/12/02 06:06:20;;;;;;;34.05;20.30;;;0.30;99.90;;;;;;5094198;28;20640;-81
2020/12/02 06:08:50;;;;;;;35.08;20.70;;;0.40;99.90;;;;;;5094293;28;20610;-81
2020/12/02 06:11:29;;;;;;;41.15;20.65;;;0.40;99.90;;;;;;5094191;28;20246;-81
2020/12/02 06:13:57;;;;;;;39.80;23.60;;;0.40;99.90;;;;;;5109209;28;20267;-81
2020/12/02 06:16:36;;;;;;;37.40;20.92;;;0.40;99.90;;;;;;5114362;28;20630;-81
2020/12/02 06:19:14;;;;;;;32.38;20.20;;;0.40;99.90;;;;;;5114202;28;20690;-82
2020/12/02 06:21:42;;;;;;;34.30;19.90;;;0.30;99.90;;;;;;5114322;27;20274;-82
2020/12/02 06:24:11;;;;;;;31.20;20.17;;;0.40;99.90;;;;;;5114380;28;20219;-82
2020/12/02 06:26:40;;;;;;;37.35;19.88;;;0.30;99.90;;;;;;5102165;28;20212;-82
2020/12/02 06:29:15;;;;;;;33.05;21.33;;;0.30;99.90;;;;;;5103921;28;20188;-82
2020/12/02 06:31:51;;;;;;;37.75;22.17;;;0.30;99.90;;;;;;5091812;28;20283;-82
2020/12/02 06:34:24;;;;;;;36.63;21.92;;;0.30;99.90;;;;;;5092890;28;20280;-82
2020/12/02 06:37:10;;;;;;;36.40;21.23;;;0.30;99.90;;;;;;5092163;28;20271;-82
2020/12/02 06:39:38;;;;;;;37.28;21.98;;;0.30;99.90;;;;;;5111433;28;20640;-86
2020/12/02 06:42:30;;;;;;;36.75;22.23;;;0.30;99.90;;;;;;5114068;28;20278;-85
2020/12/02 06:45:07;;;;;;;38.40;21.10;;;0.30;99.90;;;;;;5114060;28;20287;-85
2020/12/02 06:47:36;;;;;;;32.83;20.83;;;0.30;99.90;;;;;;5114069;28;20279;-85
2020/12/02 06:50:11;;;;;;;35.03;20.90;;;0.30;99.90;;;;;;5114058;28;20726;-84
2020/12/02 06:52:37;;;;;;;42.80;24.30;;;0.40;99.90;;;;;;5113965;28;20244;-85
2020/12/02 06:55:13;;;;;;;37.90;21.55;;;0.40;99.90;;;;;;5113917;28;20191;-83
2020/12/02 06:57:39;;;;;;;36.78;22.05;;;0.40;99.90;;;;;;5113652;28;20274;-83
2020/12/02 07:00:08;;;;;;;32.00;20.90;;;0.40;99.90;;;;;;5113938;28;20310;-83
2020/12/02 07:02:43;;;;;;;33.42;21.10;;;0.40;99.90;;;;;;5113739;28;20282;-83
2020/12/02 07:05:15;;;;;;;40.60;22.98;;;0.40;99.90;;;;;;5113780;28;20187;-83
2020/12/02 07:07:42;;;;;;;40.83;21.50;;;0.40;99.90;;;;;;5113601;28;20605;-83
2020/12/02 07:10:16;;;;;;;36.95;21.45;;;0.40;99.90;;;;;;5113505;28;20192;-83
2020/12/02 07:12:42;;;;;;;41.38;22.85;;;0.40;99.90;;;;;;5108460;28;20267;-82
2020/12/02 07:15:13;;;;;;;32.40;20.70;;;0.40;99.90;;;;;;5093073;28;20221;-82
2020/12/02 07:17:40;;;;;;;40.10;22.30;;;0.50;99.90;;;;;;5093368;28;20611;-83
2020/12/02 07:20:09;;;;;;;35.50;21.75;;;0.50;99.90;;;;;;5093003;28;20308;-83
2020/12/02 07:22:39;;;;;;;40.20;23.55;;;0.50;99.90;;;;;;5093150;28;20318;-83
2020/12/02 07:25:08;;;;;;;35.17;21.95;;;0.60;99.90;;;;;;5093229;28;20271;-82
2020/12/02 07:27:41;;;;;;;42.13;27.08;;;0.70;99.90;;;;;;5093166;28;20279;-83
2020/12/02 07:30:13;;;;;;;38.75;25.30;;;0.70;99.90;;;;;;5093161;28;20276;-83
2020/12/02 07:32:40;;;;;;;44.30;26.95;;;0.70;99.90;;;;;;5092957;28;20288;-84
2020/12/02 07:35:14;;;;;;;38.72;23.80;;;0.80;99.90;;;;;;5092921;28;20275;-83
2020/12/02 07:37:42;;;;;;;39.30;23.23;;;0.80;99.90;;;;;;5093111;28;20282;-83
2020/12/02 07:40:28;;;;;;;33.08;21.52;;;0.80;99.90;;;;;;5092974;28;20220;-83
2020/12/02 07:42:55;;;;;;;36.17;22.10;;;0.90;99.90;;;;;;5092892;28;20662;-83
2020/12/02 07:45:25;;;;;;;42.33;24.90;;;1.00;99.90;;;;;;5092766;28;20203;-83
2020/12/02 07:47:57;;;;;;;41.08;24.38;;;1.00;99.90;;;;;;5093979;28;20272;-85
2020/12/02 07:50:28;;;;;;;38.55;23.80;;;1.10;99.90;;;;;;5097171;28;20284;-85
2020/12/02 07:53:01;;;;;;;41.65;25.30;;;1.20;99.90;;;;;;5096997;28;20272;-86
2020/12/02 07:55:34;;;;;;;44.47;25.80;;;1.30;99.90;;;;;;5096955;28;20249;-85
2020/12/02 07:58:00;;;;;;;39.33;22.75;;;1.30;99.90;;;;;;5096742;28;20287;-85
2020/12/02 08:03:33;;;;;;;39.22;23.52;;;1.60;99.90;;;;;;5091499;28;20764;-84
2020/12/02 08:06:06;;;;;;;41.25;25.45;;;1.70;99.90;;;;;;5096750;28;20200;-85
2020/12/02 08:08:31;;;;;;;45.50;25.40;;;1.80;99.90;;;;;;5096452;28;20303;-84
2020/12/02 08:11:07;;;;;;;48.87;26.03;;;1.80;99.90;;;;;;5096803;28;20196;-84
2020/12/02 08:13:35;;;;;;;40.00;23.70;;;1.90;99.90;;;;;;5109030;28;20528;-85
2020/12/02 08:16:04;;;;;;;45.08;25.80;;;1.90;99.90;;;;;;5117076;28;20298;-84
2020/12/02 08:18:32;;;;;;;43.05;26.15;;;2.00;99.90;;;;;;5116838;28;20267;-85
2020/12/02 08:21:12;;;;;;;42.80;24.80;;;2.10;99.90;;;;;;5116650;28;20216;-85
2020/12/02 08:23:39;;;;;;;41.47;25.33;;;2.20;99.90;;;;;;5116846;28;20218;-85
2020/12/02 08:26:14;;;;;;;41.22;24.67;;;2.20;99.90;;;;;;5116787;28;20278;-84
2020/12/02 08:28:41;;;;;;;38.65;25.52;;;2.30;99.90;;;;;;5116676;28;20282;-85
2020/12/02 08:31:17;;;;;;;43.15;26.58;;;2.40;99.90;;;;;;5116526;28;20225;-84
2020/12/02 08:34:11;;;;;;;42.83;26.30;;;2.40;99.90;;;;;;5116317;28;20188;-84
2020/12/02 08:36:38;;;;;;;38.15;25.60;;;2.50;99.90;;;;;;5116680;28;20245;-84
2020/12/02 08:39:06;;;;;;;38.55;24.88;;;2.60;99.90;;;;;;5116301;28;20295;-84
2020/12/02 08:41:41;;;;;;;44.50;25.77;;;2.60;99.90;;;;;;5116320;28;20275;-84
2020/12/02 08:44:10;;;;;;;43.97;26.60;;;2.60;99.90;;;;;;5116229;28;20278;-85
2020/12/02 08:46:48;;;;;;;38.83;24.40;;;2.70;99.90;;;;;;5116401;27;20287;-86
2020/12/02 08:49:14;;;;;;;46.38;27.60;;;2.70;99.90;;;;;;5116226;27;20601;-80
2020/12/02 08:51:42;;;;;;;45.10;28.35;;;2.70;99.90;;;;;;5115014;28;20274;-78
2020/12/02 08:54:11;;;;;;;43.45;28.35;;;2.80;99.90;;;;;;5096940;28;20272;-78
2020/12/02 08:56:38;;;;;;;43.13;26.45;;;2.80;99.90;;;;;;5095084;28;20609;-78
2020/12/02 08:59:07;;;;;;;53.20;28.52;;;2.90;99.90;;;;;;5106868;28;20718;-78
2020/12/02 09:01:32;;;;;;;43.28;26.77;;;2.90;99.90;;;;;;5098680;28;20670;-77
2020/12/02 09:03:59;;;;;;;50.53;28.53;;;3.00;99.90;;;;;;5115565;28;20193;-78
2020/12/02 09:06:25;;;;;;;47.15;28.48;;;3.00;99.90;;;;;;5108242;28;21005;-77
2020/12/02 09:08:52;;;;;;;46.33;28.25;;;3.10;99.90;;;;;;5105813;28;20188;-79
2020/12/02 09:11:21;;;;;;;45.25;27.85;;;3.10;99.90;;;;;;5115766;28;20286;-85
2020/12/02 09:13:48;;;;;;;41.65;27.48;;;3.20;99.90;;;;;;5110744;28;20188;-80
2020/12/02 09:16:20;;;;;;;49.55;29.45;;;3.20;99.90;;;;;;5109901;27;20223;-80
2020/12/02 09:18:46;;;;;;;44.85;27.30;;;3.30;99.90;;;;;;5104997;28;20633;-80
2020/12/02 09:21:12;;;;;;;54.10;28.60;;;3.30;99.90;;;;;;5101444;28;20212;-80
2020/12/02 09:23:38;;;;;;;50.03;29.50;;;3.40;99.90;;;;;;5111491;28;20441;-80
2020/12/02 09:26:04;;;;;;;48.13;28.17;;;3.40;99.90;;;;;;5098962;28;20176;-80
2020/12/02 09:28:30;;;;;;;48.60;27.63;;;3.40;99.90;;;;;;5107386;28;20443;-80
2020/12/02 09:30:57;;;;;;;47.90;28.70;;;3.50;99.90;;;;;;5106314;28;20441;-80
2020/12/02 09:33:23;;;;;;;54.00;30.05;;;3.50;99.90;;;;;;5098952;28;20435;-80
2020/12/02 09:35:49;;;;;;;52.63;30.70;;;3.60;99.90;;;;;;5111020;28;20262;-80
2020/12/02 09:38:17;;;;;;;49.87;30.37;;;3.60;99.90;;;;;;5100236;28;20180;-80
2020/12/02 09:40:43;;;;;;;49.65;28.75;;;3.70;99.90;;;;;;5105115;28;20509;-80
2020/12/02 09:43:34;;;;;;;53.83;30.13;;;3.80;99.90;;;;;;5107979;28;20223;-80
2020/12/02 09:46:08;;;;;;;50.05;29.70;;;3.80;99.90;;;;;;5098022;28;20278;-80
2020/12/02 09:48:34;;;;;;;50.03;30.15;;;3.80;99.90;;;;;;5106311;28;20208;-80
2020/12/02 09:51:06;;;;;;;49.15;31.58;;;3.80;99.90;;;;;;5106270;28;20245;-80
2020/12/02 09:53:32;;;;;;;47.00;29.75;;;3.80;99.90;;;;;;5098029;28;20275;-80
2020/12/02 09:55:58;;;;;;;47.10;28.70;;;3.90;99.90;;;;;;5097468;28;20240;-80
2020/12/02 09:58:25;;;;;;;50.55;31.33;;;3.90;99.90;;;;;;5107565;28;20268;-79
2020/12/02 10:00:56;;;;;;;58.67;31.75;;;3.90;99.90;;;;;;5104730;28;20215;-80
2020/12/02 10:04:22;;;;;;;53.83;30.35;;;4.00;99.90;;;;;;5099557;28;20267;-79
2020/12/02 10:07:12;;;;;;;45.60;27.88;;;4.10;99.90;;;;;;5031466;28;20685;-79
2020/12/02 10:10:02;;;;;;;46.42;28.67;;;4.10;99.90;;;;;;5031451;28;20635;-80
2020/12/02 10:12:44;;;;;;;42.97;27.05;;;4.20;99.90;;;;;;5083016;28;20264;-80
2020/12/02 10:15:25;;;;;;;49.47;28.73;;;4.30;99.90;;;;;;5107041;28;20306;-80
2020/12/02 10:18:10;;;;;;;46.80;29.77;;;4.30;99.90;;;;;;5097443;28;21001;-80
2020/12/02 10:20:42;;;;;;;42.85;27.60;;;4.30;99.90;;;;;;5107010;28;20311;-80
2020/12/02 10:23:19;;;;;;;45.38;27.75;;;4.40;99.90;;;;;;5104702;28;20267;-80
2020/12/02 10:26:16;;;;;;;48.13;29.05;;;4.40;99.90;;;;;;5107408;28;20231;-80
2020/12/02 10:28:49;;;;;;;42.63;26.65;;;4.50;99.90;;;;;;5102247;28;20185;-80
2020/12/02 10:31:20;;;;;;;47.85;29.75;;;4.50;99.90;;;;;;5100537;28;20445;-80
2020/12/02 10:33:57;;;;;;;45.30;28.95;;;4.60;99.90;;;;;;5109829;28;20589;-80
2020/12/02 10:36:26;;;;;;;48.60;28.65;;;4.60;99.90;;;;;;5095104;28;20230;-80
2020/12/02 10:38:56;;;;;;;49.88;30.75;;;4.60;99.90;;;;;;5095577;28;20223;-79
2020/12/02 10:41:33;;;;;;;45.80;28.25;;;4.60;99.90;;;;;;5102736;28;23479;-80
2020/12/02 10:44:14;;;;;;;44.53;29.55;;;4.60;99.90;;;;;;5110795;28;20226;-80
2020/12/02 10:47:08;;;;;;;48.75;29.70;;;4.60;99.90;;;;;;5096750;28;20596;-80
2020/12/02 10:49:34;;;;;;;43.70;29.42;;;4.70;99.90;;;;;;5096972;28;20280;-80
2020/12/02 10:52:02;;;;;;;48.90;30.00;;;4.70;99.90;;;;;;5108666;28;20220;-80
2020/12/02 10:54:35;;;;;;;48.95;28.35;;;4.70;99.90;;;;;;5096797;28;20284;-80
2020/12/02 10:57:12;;;;;;;47.28;29.67;;;4.80;99.90;;;;;;5096641;28;20536;-80
2020/12/02 10:59:38;;;;;;;43.97;29.10;;;4.70;99.90;;;;;;5102390;28;20910;-79
2020/12/02 11:02:11;;;;;;;47.53;31.00;;;4.70;99.90;;;;;;5110448;28;20272;-80
2020/12/02 11:04:37;;;;;;;48.17;29.35;;;4.80;99.90;;;;;;5097420;28;20208;-79
2020/12/02 11:07:14;;;;;;;50.83;32.30;;;4.80;99.90;;;;;;5105058;28;20184;-83
2020/12/02 11:09:50;;;;;;;50.85;30.75;;;4.80;99.90;;;;;;5104122;28;20536;-82
2020/12/02 11:12:53;;;;;;;51.92;29.60;;;4.80;99.90;;;;;;5103173;28;20223;-80
2020/12/02 11:15:38;;;;;;;44.22;28.42;;;4.80;99.90;;;;;;5067842;28;20286;-80
2020/12/02 11:18:17;;;;;;;49.63;30.70;;;4.80;99.90;;;;;;5106204;28;20270;-81
2020/12/02 11:20:49;;;;;;;57.45;29.55;;;4.80;99.90;;;;;;5097667;28;20579;-79
2020/12/02 11:23:30;;;;;;;47.83;29.30;;;4.80;99.90;;;;;;5097271;28;20233;-80
2020/12/02 11:26:10;;;;;;;43.53;27.98;;;4.80;99.90;;;;;;5100601;28;20941;-81
2020/12/02 11:28:37;;;;;;;47.60;30.02;;;4.80;99.90;;;;;;5102271;28;20184;-80
2020/12/02 11:31:22;;;;;;;46.47;29.25;;;4.80;99.90;;;;;;5097405;28;20268;-81
2020/12/02 11:34:00;;;;;;;47.65;30.60;;;4.80;99.90;;;;;;5099349;28;20196;-81
2020/12/02 11:36:46;;;;;;;43.63;29.10;;;4.80;99.90;;;;;;5098721;28;20275;-81
2020/12/02 11:39:36;;;;;;;53.95;30.98;;;4.80;99.90;;;;;;5097682;28;20280;-81
2020/12/02 11:42:11;;;;;;;62.88;31.15;;;4.80;99.90;;;;;;5096464;28;20559;-81
2020/12/02 11:44:43;;;;;;;48.28;28.92;;;4.80;99.90;;;;;;5104102;28;20229;-81
2020/12/02 11:47:20;;;;;;;48.10;29.30;;;4.80;99.90;;;;;;5105846;28;20700;-80
2020/12/02 11:49:53;;;;;;;44.63;29.00;;;4.70;99.90;;;;;;5096025;28;20279;-81
2020/12/02 11:52:30;;;;;;;48.78;30.13;;;4.70;99.90;;;;;;5106586;28;20596;-80
2020/12/02 11:54:56;;;;;;;51.00;29.77;;;4.70;99.90;;;;;;5104032;28;20278;-81
2020/12/02 11:57:23;;;;;;;47.50;29.85;;;4.80;99.90;;;;;;5097448;28;20265;-80
2020/12/02 11:59:49;;;;;;;46.00;29.17;;;4.80;99.90;;;;;;5108982;28;20247;-81
2020/12/02 12:02:56;;;;;;;58.38;29.70;;;4.70;99.90;;;;;;5098174;28;20271;-80
2020/12/02 12:05:26;;;;;;;48.72;29.33;;;4.80;99.90;;;;;;5097625;28;20613;-80
2020/12/02 12:08:07;;;;;;;43.15;27.88;;;4.80;99.90;;;;;;5108671;28;20180;-80
2020/12/02 12:10:38;;;;;;;48.88;29.85;;;4.90;99.90;;;;;;5100641;28;20184;-81
2020/12/02 12:13:12;;;;;;;56.10;30.17;;;4.90;99.90;;;;;;5108357;28;20603;-80
2020/12/02 12:15:42;;;;;;;47.33;28.80;;;4.90;99.90;;;;;;5111988;28;20250;-80
2020/12/02 12:18:15;;;;;;;56.22;30.52;;;4.90;99.90;;;;;;5090108;28;20279;-82
2020/12/02 12:20:49;;;;;;;51.13;29.05;;;4.90;99.90;;;;;;5091335;28;20299;-82
2020/12/02 12:23:28;;;;;;;47.95;28.88;;;4.90;99.90;;;;;;5092196;28;20223;-83
2020/12/02 12:25:56;;;;;;;45.35;28.48;;;4.90;99.90;;;;;;5109046;28;21377;-83
2020/12/02 12:28:27;;;;;;;46.70;28.38;;;4.80;99.90;;;;;;5098878;28;20602;-83
2020/12/02 12:30:58;;;;;;;46.65;27.60;;;4.90;99.90;;;;;;5101389;28;20275;-83
2020/12/02 12:33:32;;;;;;;41.90;27.15;;;4.80;99.90;;;;;;5107615;28;20280;-83
2020/12/02 12:36:07;;;;;;;49.50;28.42;;;4.90;99.90;;;;;;5098238;28;20617;-83
2020/12/02 12:38:38;;;;;;;47.80;26.85;;;4.90;99.90;;;;;;5107836;28;20286;-83
2020/12/02 12:41:14;;;;;;;39.40;27.00;;;4.90;99.90;;;;;;5102869;28;20308;-84
2020/12/02 12:43:48;;;;;;;48.80;27.33;;;4.90;99.90;;;;;;5103412;28;20378;-83
2020/12/02 12:46:21;;;;;;;45.72;28.05;;;5.00;99.90;;;;;;5101174;28;20208;-83
2020/12/02 12:48:47;;;;;;;41.13;27.15;;;5.00;99.90;;;;;;5105714;28;20185;-83
2020/12/02 12:51:17;;;;;;;41.25;26.77;;;4.90;99.90;;;;;;5109119;28;20231;-83
2020/12/02 12:53:44;;;;;;;41.35;26.08;;;4.90;99.90;;;;;;5096800;27;20184;-83
2020/12/02 12:56:12;;;;;;;41.00;27.48;;;4.90;99.90;;;;;;5095978;28;20272;-83
2020/12/02 12:58:39;;;;;;;42.92;27.10;;;4.90;99.90;;;;;;5104276;28;20220;-84